EW8790 Weather Reports


Display with metric or nautical units.
time (UTC)temp
F
wind
direction
speed
MPH
gust
MPH
rain 1hr
in
rain 24hr
in
rain mn
in
humidity
%
barometer
mb
20200809073520 68 188 2.0 4.0 0.00 0.02 0.00 94 1016.8
20200809072520 68 132 2.0 4.0 0.00 0.02 0.00 94 1016.8
20200809071520 68 200 2.0 5.0 0.00 0.02 0.00 94 1016.8
20200809070520 68 155 3.0 5.0 0.00 0.02 0.00 95 1017.0
20200809065522 68 153 2.0 4.0 0.00 0.02 0.00 96 1017.1
20200809064522 67 165 3.0 4.0 0.00 0.02 0.00 96 1017.1
20200809063521 67 117 2.0 4.0 0.00 0.02 0.00 97 1017.1
20200809062531 67 321 0.0 2.0 0.00 0.02 0.00 98 1017.1
20200809061521 67 352 0.0 2.0 0.00 0.02 0.00 98 1016.7
20200809060521 67 311 0.0 1.0 0.00 0.02 0.00 98 1016.8
20200809055522 67 317 1.0 2.0 0.00 0.02 0.00 98 1016.7
20200809054521 66 1 1.0 2.0 0.00 0.02 0.00 97 1017.0
20200809053521 67 347 1.0 2.0 0.00 0.02 0.00 97 1017.1
20200809052521 66 340 1.0 3.0 0.00 0.02 0.00 97 1017.0
20200809051521 67 355 0.0 1.0 0.00 0.02 0.00 97 1017.0
20200809050521 67 0.0 0.0 0.00 0.02 0.00 97 1017.1
20200809045522 67 356 0.0 2.0 0.00 0.02 0.02 97 1017.1
20200809044521 67 310 1.0 2.0 0.00 0.02 0.02 97 1017.3
20200809043523 67 17 1.0 2.0 0.00 0.02 0.02 96 1017.3
20200809042521 67 308 0.0 1.0 0.00 0.02 0.02 96 1017.1
20200809041522 67 298 0.0 2.0 0.00 0.02 0.02 95 1017.0
20200809040521 67 307 0.0 1.0 0.00 0.02 0.02 95 1016.9
20200809035523 67 0.0 0.0 0.00 0.02 0.02 95 1017.0
20200809034521 67 0.0 0.0 0.00 0.02 0.02 94 1017.0
20200809033521 67 0.0 0.0 0.00 0.02 0.02 93 1017.0
20200809032521 68 0.0 1.0 0.00 0.02 0.02 93 1016.9
20200809031521 68 342 0.0 1.0 0.00 0.02 0.02 92 1016.9
20200809030021 69 336 0.0 1.0 0.00 0.02 0.02 91 1016.7
20200809025022 69 282 0.0 1.0 0.00 0.02 0.02 89 1016.4
20200809024041 70 319 0.0 1.0 0.00 0.02 0.02 88 1016.3
20200809023022 71 303 0.0 1.0 0.00 0.02 0.02 87 1016.4
20200809022024 71 320 1.0 3.0 0.00 0.02 0.02 86 1016.4
20200809021021 71 1 2.0 4.0 0.00 0.02 0.02 86 1016.1
20200809020021 72 358 2.0 4.0 0.00 0.02 0.02 86 1016.1
20200809015021 72 326 2.0 4.0 0.00 0.02 0.02 86 1016.1
20200809014022 72 354 2.0 4.0 0.00 0.02 0.02 84 1016.1
20200809013022 72 341 2.0 4.0 0.00 0.02 0.02 84 1015.7
20200809012022 72 310 1.0 4.0 0.00 0.02 0.02 83 1015.7
20200809011021 72 336 2.0 4.0 0.00 0.02 0.02 83 1015.7
20200809010021 72 329 2.0 4.0 0.00 0.02 0.02 83 1015.7
20200809005021 72 347 3.0 5.0 0.00 0.02 0.02 84 1015.7
20200809004021 72 354 2.0 4.0 0.00 0.02 0.02 83 1015.7
20200809003021 73 328 2.0 4.0 0.00 0.02 0.02 82 1015.4
20200809002023 73 341 2.0 5.0 0.00 0.02 0.02 81 1015.3
20200809001022 73 155 3.0 6.0 0.00 0.02 0.02 80 1015.0
20200809000022 74 31 2.0 6.0 0.00 0.02 0.02 76 1015.4
20200808235021 74 240 2.0 4.0 0.00 0.02 0.02 75 1014.2
20200808234021 73 222 3.0 7.0 0.01 0.02 0.02 74 1013.3
20200808233022 73 184 5.0 9.0 0.01 0.02 0.02 78 1012.9
20200808232022 73 142 6.0 10.0 0.01 0.02 0.02 83 1013.0
20200808231023 73 149 8.0 12.0 0.01 0.02 0.02 90 1013.7
20200808230025 73 148 7.0 10.0 0.01 0.02 0.02 92 1015.2
20200808225021 74 169 4.0 10.0 0.01 0.02 0.02 91 1015.2
20200808224022 74 150 3.0 6.0 0.00 0.01 0.01 92 1014.6
20200808223021 74 121 3.0 6.0 0.00 0.01 0.01 87 1015.3
20200808222021 75 298 2.0 4.0 0.00 0.01 0.01 82 1015.6
20200808221022 75 42 1.0 3.0 0.00 0.01 0.01 80 1016.7
20200808220021 75 345 1.0 4.0 0.01 0.01 0.01 89 1016.7
20200808215223 76 0.0 0.0 0.01 0.01 0.01 93 1017.2
20200808214022 77 352 0.0 3.0 0.01 0.01 0.01 92 1016.9
20200808213022 77 278 1.0 2.0 0.01 0.01 0.01 91 1017.1
20200808212023 78 31 1.0 3.0 0.01 0.01 0.01 89 1016.9
20200808211029 79 7 2.0 5.0 0.01 0.01 0.01 86 1017.2
20200808210022 80 19 2.0 4.0 0.00 0.00 0.00 82 1017.7
20200808205023 81 342 2.0 3.0 0.00 0.00 0.00 80 1017.7
20200808204023 82 355 1.0 3.0 0.00 0.00 0.00 79 1017.7
20200808203022 81 297 0.0 2.0 0.00 0.00 0.00 80 1017.7
20200808202022 81 7 0.0 2.0 0.00 0.00 0.00 81 1018.1
20200808201022 81 309 1.0 3.0 0.00 0.00 0.00 81 1017.8
20200808200022 80 252 1.0 2.0 0.00 0.00 0.00 81 1017.9
20200808195022 81 41 0.0 1.0 0.00 0.00 0.00 80 1018.0
20200808194454 81 338 0.0 2.0 0.00 0.00 0.00 79 1018.1
20200808193022 82 318 1.0 2.0 0.00 0.00 0.00 77 1017.7
20200808192022 82 13 1.0 2.0 0.00 0.00 0.00 77 1017.4
20200808191032 82 271 0.0 2.0 0.00 0.00 0.00 77 1017.0
20200808190022 82 80 1.0 3.0 0.00 0.00 0.00 77 1016.7
20200808185023 82 295 2.0 4.0 0.00 0.00 0.00 77 1016.7
20200808184022 82 187 2.0 4.0 0.00 0.00 0.00 77 1016.4
20200808183023 82 286 2.0 5.0 0.00 0.00 0.00 78 1016.4
20200808182022 81 290 2.0 3.0 0.00 0.00 0.00 79 1016.4
20200808181022 82 252 2.0 4.0 0.00 0.00 0.00 78 1016.3
20200808180022 82 270 2.0 6.0 0.00 0.00 0.00 78 1016.1
20200808175023 82 249 1.0 3.0 0.00 0.00 0.00 77 1016.4
20200808174022 82 260 3.0 7.0 0.00 0.00 0.00 76 1016.7
20200808173022 83 58 2.0 4.0 0.00 0.00 0.00 75 1016.5
20200808172022 82 231 2.0 4.0 0.00 0.00 0.00 76 1016.8
20200808171112 82 121 3.0 5.0 0.00 0.00 0.00 76 1016.8
20200808170022 82 236 2.0 4.0 0.00 0.00 0.00 76 1017.0
20200808165022 82 231 2.0 4.0 0.00 0.00 0.00 76 1017.1
20200808164022 82 210 2.0 6.0 0.00 0.00 0.00 75 1017.1
20200808163022 82 231 3.0 7.0 0.00 0.00 0.00 76 1017.1
20200808162023 81 264 2.0 3.0 0.00 0.00 0.00 78 1017.4
20200808161022 80 261 2.0 3.0 0.00 0.00 0.00 79 1017.4
20200808160053 79 23 2.0 3.0 0.00 0.00 0.00 80 1017.3
20200808155023 79 230 3.0 6.0 0.00 0.00 0.00 80 1017.3
20200808154029 79 273 3.0 6.0 0.00 0.00 0.00 80 1017.4
20200808153022 80 301 2.0 4.0 0.00 0.00 0.00 79 1017.4
20200808152022 77 279 1.0 3.0 0.00 0.00 0.00 84 1017.3
20200808151032 77 247 2.0 4.0 0.00 0.00 0.00 83 1017.3
20200808150022 77 346 2.0 4.0 0.00 0.00 0.00 83 1017.3
20200808145042 77 304 2.0 4.0 0.00 0.00 0.00 82 1016.9
20200808144028 77 319 1.0 3.0 0.00 0.00 0.00 83 1017.0
20200808143023 77 292 1.0 4.0 0.00 0.00 0.00 83 1016.9
20200808142023 77 323 2.0 3.0 0.00 0.00 0.00 83 1016.9
20200808141022 77 216 4.0 6.0 0.00 0.00 0.00 81 1016.9
20200808140022 78 284 2.0 4.0 0.00 0.00 0.00 82 1016.6
20200808135023 78 238 3.0 7.0 0.00 0.00 0.00 81 1016.7
20200808134022 76 201 3.0 7.0 0.00 0.00 0.00 85 1016.6
20200808133022 76 192 3.0 4.0 0.00 0.00 0.00 85 1016.6
20200808132022 77 201 3.0 5.0 0.00 0.00 0.00 84 1016.7
20200808131022 77 189 3.0 10.0 0.00 0.00 0.00 85 1016.6
20200808130032 77 186 3.0 7.0 0.00 0.00 0.00 84 1016.3
20200808125023 76 41 3.0 7.0 0.00 0.00 0.00 86 1016.3
20200808124022 75 209 3.0 6.0 0.00 0.00 0.00 88 1016.3
20200808123022 76 342 2.0 5.0 0.00 0.00 0.00 87 1016.0
20200808122022 74 236 2.0 4.0 0.00 0.00 0.00 90 1015.9
20200808121023 74 218 2.0 5.0 0.00 0.00 0.00 91 1015.9
20200808120023 74 271 2.0 4.0 0.00 0.00 0.00 91 1015.9
20200808115022 73 188 2.0 3.0 0.00 0.00 0.00 91 1015.6
20200808114023 73 195 2.0 4.0 0.00 0.00 0.00 91 1015.6
20200808113023 73 219 2.0 5.0 0.00 0.00 0.00 91 1015.3
20200808112024 73 11 1.0 3.0 0.00 0.00 0.00 91 1015.3
20200808111022 73 219 2.0 4.0 0.00 0.00 0.00 91 1015.3
20200808110023 73 186 3.0 5.0 0.00 0.00 0.00 91 1015.5
20200808105023 73 239 2.0 4.0 0.00 0.00 0.00 92 1015.5
20200808104022 73 342 1.0 2.0 0.00 0.00 0.00 91 1015.2
20200808103024 73 238 1.0 4.0 0.00 0.00 0.00 91 1015.2
20200808102022 73 34 1.0 2.0 0.00 0.00 0.00 91 1015.3
20200808101023 73 262 1.0 3.0 0.00 0.00 0.00 90 1015.3
20200808100022 74 312 1.0 3.0 0.00 0.00 0.00 89 1015.3
20200808095023 74 70 1.0 2.0 0.00 0.00 0.00 89 1015.6
20200808094023 74 289 1.0 4.0 0.00 0.00 0.00 88 1015.6
20200808093023 74 322 0.0 2.0 0.00 0.04 0.00 88 1015.6
20200808092023 75 182 1.0 3.0 0.00 0.04 0.00 87 1015.9
20200808091023 75 293 1.0 3.0 0.00 0.04 0.00 87 1015.9
20200808090024 75 4 2.0 3.0 0.00 0.04 0.00 87 1015.9
20200808085023 75 317 1.0 4.0 0.00 0.04 0.00 87 1016.0
20200808084023 75 99 1.0 3.0 0.00 0.04 0.00 86 1016.0
20200808083022 75 237 2.0 5.0 0.00 0.04 0.00 86 1016.0
20200808082023 75 306 1.0 2.0 0.00 0.04 0.00 86 1015.9
20200808081023 75 0.0 2.0 0.00 0.04 0.00 86 1015.9
20200808080023 75 270 1.0 4.0 0.00 0.04 0.00 85 1015.9
20200808075023 75 323 1.0 5.0 0.00 0.04 0.00 85 1015.6
20200808074023 75 222 3.0 6.0 0.00 0.04 0.00 85 1015.6